sensor_id;sensor_type;location;lat;lon;timestamp;temperature;humidity
19261;DHT22;9764;48.114;11.670;2023-02-13T00:01:25;19.60;85.50
19261;DHT22;9764;48.114;11.670;2023-02-13T00:03:53;19.60;85.60
19261;DHT22;9764;48.114;11.670;2023-02-13T00:06:22;19.70;85.50
19261;DHT22;9764;48.114;11.670;2023-02-13T00:08:52;19.60;85.50
19261;DHT22;9764;48.114;11.670;2023-02-13T00:11:21;19.70;85.50
19261;DHT22;9764;48.114;11.670;2023-02-13T00:13:49;19.70;85.40
19261;DHT22;9764;48.114;11.670;2023-02-13T00:16:17;19.60;86.30
19261;DHT22;9764;48.114;11.670;2023-02-13T00:18:46;19.70;85.50
19261;DHT22;9764;48.114;11.670;2023-02-13T00:21:14;19.70;85.40
19261;DHT22;9764;48.114;11.670;2023-02-13T00:23:43;19.70;85.40
19261;DHT22;9764;48.114;11.670;2023-02-13T00:26:14;19.60;85.40
19261;DHT22;9764;48.114;11.670;2023-02-13T00:28:44;19.60;85.50
19261;DHT22;9764;48.114;11.670;2023-02-13T00:31:15;19.60;85.40
19261;DHT22;9764;48.114;11.670;2023-02-13T00:33:43;19.70;85.20
19261;DHT22;9764;48.114;11.670;2023-02-13T00:36:15;19.70;85.30
19261;DHT22;9764;48.114;11.670;2023-02-13T00:38:44;19.70;85.40
19261;DHT22;9764;48.114;11.670;2023-02-13T00:41:14;19.60;85.40
19261;DHT22;9764;48.114;11.670;2023-02-13T00:43:43;19.60;85.50
19261;DHT22;9764;48.114;11.670;2023-02-13T00:46:12;19.50;85.50
19261;DHT22;9764;48.114;11.670;2023-02-13T00:48:41;19.50;85.60
19261;DHT22;9764;48.114;11.670;2023-02-13T00:51:10;19.50;85.60
19261;DHT22;9764;48.114;11.670;2023-02-13T00:53:39;19.50;85.60
19261;DHT22;9764;48.114;11.670;2023-02-13T00:56:07;19.50;85.60
19261;DHT22;9764;48.114;11.670;2023-02-13T00:58:37;19.50;85.60
19261;DHT22;9764;48.114;11.670;2023-02-13T01:01:06;19.60;85.50
19261;DHT22;9764;48.114;11.670;2023-02-13T01:03:35;19.50;85.40
19261;DHT22;9764;48.114;11.670;2023-02-13T01:06:04;19.50;85.50
19261;DHT22;9764;48.114;11.670;2023-02-13T01:08:33;19.50;85.60
19261;DHT22;9764;48.114;11.670;2023-02-13T01:11:01;19.50;85.70
19261;DHT22;9764;48.114;11.670;2023-02-13T01:13:29;19.50;85.60
19261;DHT22;9764;48.114;11.670;2023-02-13T01:15:59;19.50;85.60
19261;DHT22;9764;48.114;11.670;2023-02-13T01:18:28;19.40;85.50
19261;DHT22;9764;48.114;11.670;2023-02-13T01:20:58;19.50;85.60
19261;DHT22;9764;48.114;11.670;2023-02-13T01:23:29;19.40;85.60
19261;DHT22;9764;48.114;11.670;2023-02-13T01:25:58;19.40;85.60
19261;DHT22;9764;48.114;11.670;2023-02-13T01:28:27;19.50;85.60
19261;DHT22;9764;48.114;11.670;2023-02-13T01:30:56;19.50;85.60
19261;DHT22;9764;48.114;11.670;2023-02-13T01:33:28;19.50;85.60
19261;DHT22;9764;48.114;11.670;2023-02-13T01:35:57;19.40;85.40
19261;DHT22;9764;48.114;11.670;2023-02-13T01:38:26;19.40;85.50
19261;DHT22;9764;48.114;11.670;2023-02-13T01:40:55;19.40;85.60
19261;DHT22;9764;48.114;11.670;2023-02-13T01:43:41;19.40;85.70
19261;DHT22;9764;48.114;11.670;2023-02-13T01:46:10;19.40;85.50
19261;DHT22;9764;48.114;11.670;2023-02-13T01:48:41;19.50;85.40
19261;DHT22;9764;48.114;11.670;2023-02-13T01:51:13;19.40;85.40
19261;DHT22;9764;48.114;11.670;2023-02-13T01:53:48;19.50;85.50
19261;DHT22;9764;48.114;11.670;2023-02-13T01:56:22;19.50;85.40
19261;DHT22;9764;48.114;11.670;2023-02-13T01:58:56;19.50;85.40
19261;DHT22;9764;48.114;11.670;2023-02-13T02:01:26;19.40;85.30
19261;DHT22;9764;48.114;11.670;2023-02-13T02:03:59;19.40;85.30
19261;DHT22;9764;48.114;11.670;2023-02-13T02:06:35;19.50;85.50
19261;DHT22;9764;48.114;11.670;2023-02-13T02:09:10;19.40;85.40
19261;DHT22;9764;48.114;11.670;2023-02-13T02:11:43;19.40;85.50
19261;DHT22;9764;48.114;11.670;2023-02-13T02:14:14;19.40;85.60
19261;DHT22;9764;48.114;11.670;2023-02-13T02:16:42;19.40;85.50
19261;DHT22;9764;48.114;11.670;2023-02-13T02:19:17;19.40;85.50
19261;DHT22;9764;48.114;11.670;2023-02-13T02:22:09;19.40;85.50
19261;DHT22;9764;48.114;11.670;2023-02-13T02:31:17;19.40;85.50
19261;DHT22;9764;48.114;11.670;2023-02-13T02:34:04;19.40;85.50
19261;DHT22;9764;48.114;11.670;2023-02-13T02:36:51;19.40;85.50
19261;DHT22;9764;48.114;11.670;2023-02-13T02:39:32;19.30;85.50
19261;DHT22;9764;48.114;11.670;2023-02-13T02:42:11;19.30;85.50
19261;DHT22;9764;48.114;11.670;2023-02-13T02:44:53;19.40;85.50
19261;DHT22;9764;48.114;11.670;2023-02-13T02:47:26;19.40;85.30
19261;DHT22;9764;48.114;11.670;2023-02-13T02:50:25;19.40;85.70
19261;DHT22;9764;48.114;11.670;2023-02-13T02:53:06;19.40;85.30
19261;DHT22;9764;48.114;11.670;2023-02-13T02:55:42;19.30;85.40
19261;DHT22;9764;48.114;11.670;2023-02-13T02:58:18;19.40;85.40
19261;DHT22;9764;48.114;11.670;2023-02-13T03:01:08;19.30;85.30
19261;DHT22;9764;48.114;11.670;2023-02-13T03:03:59;19.40;85.40
19261;DHT22;9764;48.114;11.670;2023-02-13T03:06:50;19.30;85.40
19261;DHT22;9764;48.114;11.670;2023-02-13T03:09:22;19.30;85.40
19261;DHT22;9764;48.114;11.670;2023-02-13T03:12:11;19.30;85.30
19261;DHT22;9764;48.114;11.670;2023-02-13T03:17:43;19.30;85.40
19261;DHT22;9764;48.114;11.670;2023-02-13T03:20:35;19.30;85.30
19261;DHT22;9764;48.114;11.670;2023-02-13T03:23:36;19.30;85.40
19261;DHT22;9764;48.114;11.670;2023-02-13T03:26:26;19.30;85.30
19261;DHT22;9764;48.114;11.670;2023-02-13T03:29:07;19.30;85.30
19261;DHT22;9764;48.114;11.670;2023-02-13T03:32:02;19.30;85.30
19261;DHT22;9764;48.114;11.670;2023-02-13T03:34:34;19.30;85.30
19261;DHT22;9764;48.114;11.670;2023-02-13T03:37:19;19.40;85.10
19261;DHT22;9764;48.114;11.670;2023-02-13T03:40:14;19.40;85.20
19261;DHT22;9764;48.114;11.670;2023-02-13T03:42:47;19.40;85.30
19261;DHT22;9764;48.114;11.670;2023-02-13T03:45:22;19.30;85.10
19261;DHT22;9764;48.114;11.670;2023-02-13T03:48:14;19.30;85.10
19261;DHT22;9764;48.114;11.670;2023-02-13T03:51:20;19.30;85.20
19261;DHT22;9764;48.114;11.670;2023-02-13T03:53:50;19.40;85.10
19261;DHT22;9764;48.114;11.670;2023-02-13T03:56:22;19.40;85.10
19261;DHT22;9764;48.114;11.670;2023-02-13T03:59:17;19.30;85.10
19261;DHT22;9764;48.114;11.670;2023-02-13T04:01:53;19.30;85.20
19261;DHT22;9764;48.114;11.670;2023-02-13T04:04:26;19.40;85.00
19261;DHT22;9764;48.114;11.670;2023-02-13T04:06:58;19.30;85.20
19261;DHT22;9764;48.114;11.670;2023-02-13T04:09:29;19.30;85.30
19261;DHT22;9764;48.114;11.670;2023-02-13T04:12:05;19.30;85.20
19261;DHT22;9764;48.114;11.670;2023-02-13T04:14:39;19.30;85.20
19261;DHT22;9764;48.114;11.670;2023-02-13T04:17:14;19.30;85.40
19261;DHT22;9764;48.114;11.670;2023-02-13T04:19:44;19.30;85.30
19261;DHT22;9764;48.114;11.670;2023-02-13T04:22:13;19.30;85.40
19261;DHT22;9764;48.114;11.670;2023-02-13T04:24:43;19.30;86.20
19261;DHT22;9764;48.114;11.670;2023-02-13T04:27:14;19.30;85.40
19261;DHT22;9764;48.114;11.670;2023-02-13T04:29:43;19.30;85.40
19261;DHT22;9764;48.114;11.670;2023-02-13T04:32:12;19.30;85.40
19261;DHT22;9764;48.114;11.670;2023-02-13T04:34:41;19.30;86.20
19261;DHT22;9764;48.114;11.670;2023-02-13T04:37:09;19.20;85.50
19261;DHT22;9764;48.114;11.670;2023-02-13T04:39:39;19.30;85.50
19261;DHT22;9764;48.114;11.670;2023-02-13T04:42:07;19.20;85.40
19261;DHT22;9764;48.114;11.670;2023-02-13T04:44:37;19.30;85.40
19261;DHT22;9764;48.114;11.670;2023-02-13T04:47:05;19.30;85.50
19261;DHT22;9764;48.114;11.670;2023-02-13T04:49:33;19.20;85.50
19261;DHT22;9764;48.114;11.670;2023-02-13T04:52:02;19.30;85.40
19261;DHT22;9764;48.114;11.670;2023-02-13T04:54:30;19.30;85.40
19261;DHT22;9764;48.114;11.670;2023-02-13T04:56:58;19.30;85.50
19261;DHT22;9764;48.114;11.670;2023-02-13T04:59:27;19.20;85.50
19261;DHT22;9764;48.114;11.670;2023-02-13T05:01:57;19.20;85.50
19261;DHT22;9764;48.114;11.670;2023-02-13T05:04:26;19.20;85.50
19261;DHT22;9764;48.114;11.670;2023-02-13T05:06:54;19.20;85.60
19261;DHT22;9764;48.114;11.670;2023-02-13T05:09:23;19.30;85.40
19261;DHT22;9764;48.114;11.670;2023-02-13T05:11:51;19.30;85.40
19261;DHT22;9764;48.114;11.670;2023-02-13T05:14:20;19.30;86.00
19261;DHT22;9764;48.114;11.670;2023-02-13T05:16:49;19.30;85.20
19261;DHT22;9764;48.114;11.670;2023-02-13T05:19:18;19.40;85.10
19261;DHT22;9764;48.114;11.670;2023-02-13T05:21:47;19.40;85.20
19261;DHT22;9764;48.114;11.670;2023-02-13T05:24:32;19.40;85.10
19261;DHT22;9764;48.114;11.670;2023-02-13T05:27:01;19.40;85.20
19261;DHT22;9764;48.114;11.670;2023-02-13T05:29:29;19.40;85.20
19261;DHT22;9764;48.114;11.670;2023-02-13T05:31:57;19.40;85.10
19261;DHT22;9764;48.114;11.670;2023-02-13T05:34:28;19.40;85.10
19261;DHT22;9764;48.114;11.670;2023-02-13T05:36:57;19.40;85.00
19261;DHT22;9764;48.114;11.670;2023-02-13T05:39:26;19.40;85.10
19261;DHT22;9764;48.114;11.670;2023-02-13T05:41:54;19.40;85.10
19261;DHT22;9764;48.114;11.670;2023-02-13T05:44:23;19.40;85.10
19261;DHT22;9764;48.114;11.670;2023-02-13T05:46:51;19.40;85.00
19261;DHT22;9764;48.114;11.670;2023-02-13T05:49:20;19.40;85.00
19261;DHT22;9764;48.114;11.670;2023-02-13T05:51:50;19.40;85.10
19261;DHT22;9764;48.114;11.670;2023-02-13T05:54:19;19.30;85.00
19261;DHT22;9764;48.114;11.670;2023-02-13T05:56:47;19.40;84.90
19261;DHT22;9764;48.114;11.670;2023-02-13T05:59:16;19.40;84.90
19261;DHT22;9764;48.114;11.670;2023-02-13T06:01:44;19.50;84.90
19261;DHT22;9764;48.114;11.670;2023-02-13T06:04:12;19.40;84.80
19261;DHT22;9764;48.114;11.670;2023-02-13T06:06:41;19.40;84.80
19261;DHT22;9764;48.114;11.670;2023-02-13T06:09:12;19.50;84.80
19261;DHT22;9764;48.114;11.670;2023-02-13T06:11:40;19.40;84.70
19261;DHT22;9764;48.114;11.670;2023-02-13T06:14:10;19.40;84.90
19261;DHT22;9764;48.114;11.670;2023-02-13T06:16:40;19.30;84.90
19261;DHT22;9764;48.114;11.670;2023-02-13T06:19:08;19.30;84.90
19261;DHT22;9764;48.114;11.670;2023-02-13T06:21:37;19.40;84.90
19261;DHT22;9764;48.114;11.670;2023-02-13T06:24:06;19.40;84.90
19261;DHT22;9764;48.114;11.670;2023-02-13T06:26:36;19.30;84.90
19261;DHT22;9764;48.114;11.670;2023-02-13T06:29:04;19.40;84.90
19261;DHT22;9764;48.114;11.670;2023-02-13T06:31:34;19.30;85.00
19261;DHT22;9764;48.114;11.670;2023-02-13T06:34:03;19.30;85.70
19261;DHT22;9764;48.114;11.670;2023-02-13T06:36:31;19.30;84.90
19261;DHT22;9764;48.114;11.670;2023-02-13T06:38:59;19.30;84.90
19261;DHT22;9764;48.114;11.670;2023-02-13T06:41:27;19.30;84.90
19261;DHT22;9764;48.114;11.670;2023-02-13T06:43:57;19.40;84.80
19261;DHT22;9764;48.114;11.670;2023-02-13T06:46:25;19.40;84.60
19261;DHT22;9764;48.114;11.670;2023-02-13T06:48:54;19.50;84.60
19261;DHT22;9764;48.114;11.670;2023-02-13T06:51:22;19.40;84.50
19261;DHT22;9764;48.114;11.670;2023-02-13T06:53:50;19.40;84.50
19261;DHT22;9764;48.114;11.670;2023-02-13T06:56:19;19.40;84.50
19261;DHT22;9764;48.114;11.670;2023-02-13T06:58:47;19.40;84.50
19261;DHT22;9764;48.114;11.670;2023-02-13T07:01:17;19.40;84.50
19261;DHT22;9764;48.114;11.670;2023-02-13T07:03:45;19.40;84.60
19261;DHT22;9764;48.114;11.670;2023-02-13T07:06:16;19.40;84.50
19261;DHT22;9764;48.114;11.670;2023-02-13T07:08:45;19.40;84.50
19261;DHT22;9764;48.114;11.670;2023-02-13T07:11:17;19.40;84.50
19261;DHT22;9764;48.114;11.670;2023-02-13T07:13:46;19.40;84.60
19261;DHT22;9764;48.114;11.670;2023-02-13T07:16:14;19.30;84.60
19261;DHT22;9764;48.114;11.670;2023-02-13T07:18:45;19.30;84.70
19261;DHT22;9764;48.114;11.670;2023-02-13T07:21:13;19.30;84.60
19261;DHT22;9764;48.114;11.670;2023-02-13T07:23:42;19.40;84.50
19261;DHT22;9764;48.114;11.670;2023-02-13T07:26:10;19.40;84.40
19261;DHT22;9764;48.114;11.670;2023-02-13T07:28:39;19.40;84.50
19261;DHT22;9764;48.114;11.670;2023-02-13T07:31:07;19.40;84.40
19261;DHT22;9764;48.114;11.670;2023-02-13T07:33:36;19.30;84.50
19261;DHT22;9764;48.114;11.670;2023-02-13T07:36:07;19.30;84.50
19261;DHT22;9764;48.114;11.670;2023-02-13T07:38:35;19.30;84.60
19261;DHT22;9764;48.114;11.670;2023-02-13T07:41:03;19.30;84.60
19261;DHT22;9764;48.114;11.670;2023-02-13T07:43:32;19.30;84.60
19261;DHT22;9764;48.114;11.670;2023-02-13T07:46:02;19.30;84.40
19261;DHT22;9764;48.114;11.670;2023-02-13T07:48:30;19.30;84.50
19261;DHT22;9764;48.114;11.670;2023-02-13T07:51:00;19.40;84.30
19261;DHT22;9764;48.114;11.670;2023-02-13T07:53:30;19.40;84.30
19261;DHT22;9764;48.114;11.670;2023-02-13T07:55:58;19.40;84.10
19261;DHT22;9764;48.114;11.670;2023-02-13T07:58:26;19.40;84.30
19261;DHT22;9764;48.114;11.670;2023-02-13T08:00:55;19.50;84.20
19261;DHT22;9764;48.114;11.670;2023-02-13T08:03:23;19.50;83.90
19261;DHT22;9764;48.114;11.670;2023-02-13T08:05:51;19.50;83.80
19261;DHT22;9764;48.114;11.670;2023-02-13T08:08:20;19.50;83.90
19261;DHT22;9764;48.114;11.670;2023-02-13T08:10:50;19.60;83.80
19261;DHT22;9764;48.114;11.670;2023-02-13T08:13:36;19.50;83.80
19261;DHT22;9764;48.114;11.670;2023-02-13T08:16:05;19.50;84.70
19261;DHT22;9764;48.114;11.670;2023-02-13T08:18:34;19.60;83.80
19261;DHT22;9764;48.114;11.670;2023-02-13T08:21:02;19.60;83.80
19261;DHT22;9764;48.114;11.670;2023-02-13T08:23:31;19.50;84.00
19261;DHT22;9764;48.114;11.670;2023-02-13T08:26:01;19.50;83.80
19261;DHT22;9764;48.114;11.670;2023-02-13T08:28:30;19.60;83.60
19261;DHT22;9764;48.114;11.670;2023-02-13T08:30:58;19.70;83.60
19261;DHT22;9764;48.114;11.670;2023-02-13T08:33:27;19.60;84.50
19261;DHT22;9764;48.114;11.670;2023-02-13T08:35:55;19.50;83.80
19261;DHT22;9764;48.114;11.670;2023-02-13T08:38:24;19.50;84.00
19261;DHT22;9764;48.114;11.670;2023-02-13T08:40:55;19.50;84.00
19261;DHT22;9764;48.114;11.670;2023-02-13T08:43:25;19.60;84.60
19261;DHT22;9764;48.114;11.670;2023-02-13T08:45:57;19.50;84.00
19261;DHT22;9764;48.114;11.670;2023-02-13T08:48:26;19.40;84.10
19261;DHT22;9764;48.114;11.670;2023-02-13T08:50:55;19.40;84.30
19261;DHT22;9764;48.114;11.670;2023-02-13T08:53:23;19.40;85.10
19261;DHT22;9764;48.114;11.670;2023-02-13T08:55:52;19.40;84.30
19261;DHT22;9764;48.114;11.670;2023-02-13T08:58:21;19.30;84.50
19261;DHT22;9764;48.114;11.670;2023-02-13T09:00:51;19.30;84.50
19261;DHT22;9764;48.114;11.670;2023-02-13T09:03:20;19.30;84.50
19261;DHT22;9764;48.114;11.670;2023-02-13T09:05:48;19.40;84.40
19261;DHT22;9764;48.114;11.670;2023-02-13T09:08:17;19.30;84.40
19261;DHT22;9764;48.114;11.670;2023-02-13T09:10:45;19.30;84.50
19261;DHT22;9764;48.114;11.670;2023-02-13T09:13:13;19.30;84.50
19261;DHT22;9764;48.114;11.670;2023-02-13T09:15:42;19.30;84.50
19261;DHT22;9764;48.114;11.670;2023-02-13T09:18:12;19.30;84.50
19261;DHT22;9764;48.114;11.670;2023-02-13T09:20:40;19.30;84.60
19261;DHT22;9764;48.114;11.670;2023-02-13T09:23:09;19.30;84.50
19261;DHT22;9764;48.114;11.670;2023-02-13T09:25:37;19.30;84.50
19261;DHT22;9764;48.114;11.670;2023-02-13T09:28:05;19.30;84.60
19261;DHT22;9764;48.114;11.670;2023-02-13T09:30:34;19.30;84.60
19261;DHT22;9764;48.114;11.670;2023-02-13T09:33:03;19.30;84.70
19261;DHT22;9764;48.114;11.670;2023-02-13T09:35:38;19.30;84.80
19261;DHT22;9764;48.114;11.670;2023-02-13T09:38:09;19.30;84.80
19261;DHT22;9764;48.114;11.670;2023-02-13T09:40:43;19.30;84.90
19261;DHT22;9764;48.114;11.670;2023-02-13T09:43:16;19.20;84.90
19261;DHT22;9764;48.114;11.670;2023-02-13T09:45:46;19.20;84.90
19261;DHT22;9764;48.114;11.670;2023-02-13T09:48:21;19.20;85.00
19261;DHT22;9764;48.114;11.670;2023-02-13T09:50:53;19.20;85.00
19261;DHT22;9764;48.114;11.670;2023-02-13T09:53:24;19.20;85.00
19261;DHT22;9764;48.114;11.670;2023-02-13T09:55:59;19.20;85.00
19261;DHT22;9764;48.114;11.670;2023-02-13T09:58:38;19.20;84.90
19261;DHT22;9764;48.114;11.670;2023-02-13T10:01:20;19.20;84.90
19261;DHT22;9764;48.114;11.670;2023-02-13T10:04:06;19.20;84.90
19261;DHT22;9764;48.114;11.670;2023-02-13T10:06:42;19.30;85.00
19261;DHT22;9764;48.114;11.670;2023-02-13T10:09:27;19.30;84.90
19261;DHT22;9764;48.114;11.670;2023-02-13T10:12:26;19.30;84.90
19261;DHT22;9764;48.114;11.670;2023-02-13T10:15:06;19.30;84.70
19261;DHT22;9764;48.114;11.670;2023-02-13T10:17:42;19.40;84.50
19261;DHT22;9764;48.114;11.670;2023-02-13T10:20:21;19.40;84.50
19261;DHT22;9764;48.114;11.670;2023-02-13T10:22:57;19.50;84.40
19261;DHT22;9764;48.114;11.670;2023-02-13T10:25:28;19.50;84.30
19261;DHT22;9764;48.114;11.670;2023-02-13T10:28:04;19.60;84.10
19261;DHT22;9764;48.114;11.670;2023-02-13T10:30:40;19.60;84.00
19261;DHT22;9764;48.114;11.670;2023-02-13T10:33:17;19.70;84.30
19261;DHT22;9764;48.114;11.670;2023-02-13T10:35:51;19.70;84.10
19261;DHT22;9764;48.114;11.670;2023-02-13T10:38:23;19.70;84.00
19261;DHT22;9764;48.114;11.670;2023-02-13T10:43:52;19.70;84.00
19261;DHT22;9764;48.114;11.670;2023-02-13T10:46:36;19.70;83.90
19261;DHT22;9764;48.114;11.670;2023-02-13T10:49:31;19.70;84.00
19261;DHT22;9764;48.114;11.670;2023-02-13T10:52:09;19.70;83.90
19261;DHT22;9764;48.114;11.670;2023-02-13T10:54:56;19.80;83.70
19261;DHT22;9764;48.114;11.670;2023-02-13T10:57:39;19.70;84.10
19261;DHT22;9764;48.114;11.670;2023-02-13T11:00:17;19.70;83.90
19261;DHT22;9764;48.114;11.670;2023-02-13T11:02:47;19.70;84.10
19261;DHT22;9764;48.114;11.670;2023-02-13T11:05:17;19.70;84.00
19261;DHT22;9764;48.114;11.670;2023-02-13T11:07:46;19.80;84.00
19261;DHT22;9764;48.114;11.670;2023-02-13T11:10:18;19.80;83.80
19261;DHT22;9764;48.114;11.670;2023-02-13T11:12:48;19.80;83.90
19261;DHT22;9764;48.114;11.670;2023-02-13T11:15:25;19.80;83.90
19261;DHT22;9764;48.114;11.670;2023-02-13T11:17:56;19.80;84.00
19261;DHT22;9764;48.114;11.670;2023-02-13T11:20:32;19.80;84.00
19261;DHT22;9764;48.114;11.670;2023-02-13T11:23:32;19.80;84.00
19261;DHT22;9764;48.114;11.670;2023-02-13T11:26:04;19.80;84.10
19261;DHT22;9764;48.114;11.670;2023-02-13T11:28:38;19.80;83.90
19261;DHT22;9764;48.114;11.670;2023-02-13T11:31:23;19.80;84.00
19261;DHT22;9764;48.114;11.670;2023-02-13T11:33:52;19.80;84.10
19261;DHT22;9764;48.114;11.670;2023-02-13T11:36:25;19.80;84.00
19261;DHT22;9764;48.114;11.670;2023-02-13T11:38:59;19.80;84.10
19261;DHT22;9764;48.114;11.670;2023-02-13T11:41:30;19.80;84.20
19261;DHT22;9764;48.114;11.670;2023-02-13T11:44:00;19.70;84.40
19261;DHT22;9764;48.114;11.670;2023-02-13T11:46:42;19.60;84.60
19261;DHT22;9764;48.114;11.670;2023-02-13T11:49:17;19.60;84.80
19261;DHT22;9764;48.114;11.670;2023-02-13T11:51:48;19.70;85.10
19261;DHT22;9764;48.114;11.670;2023-02-13T11:54:30;20.00;83.60
19261;DHT22;9764;48.114;11.670;2023-02-13T11:57:14;20.50;82.40
19261;DHT22;9764;48.114;11.670;2023-02-13T11:59:46;20.60;81.60
19261;DHT22;9764;48.114;11.670;2023-02-13T12:02:17;20.60;81.80
19261;DHT22;9764;48.114;11.670;2023-02-13T12:04:49;20.10;82.80
19261;DHT22;9764;48.114;11.670;2023-02-13T12:07:20;19.90;83.60
19261;DHT22;9764;48.114;11.670;2023-02-13T12:09:54;19.80;84.00
19261;DHT22;9764;48.114;11.670;2023-02-13T12:12:31;19.70;84.30
19261;DHT22;9764;48.114;11.670;2023-02-13T12:15:06;19.70;84.30
19261;DHT22;9764;48.114;11.670;2023-02-13T12:17:42;19.70;84.30
19261;DHT22;9764;48.114;11.670;2023-02-13T12:20:13;19.70;85.10
19261;DHT22;9764;48.114;11.670;2023-02-13T12:22:50;19.70;84.30
19261;DHT22;9764;48.114;11.670;2023-02-13T12:25:40;19.70;84.20
19261;DHT22;9764;48.114;11.670;2023-02-13T12:28:15;19.70;84.90
19261;DHT22;9764;48.114;11.670;2023-02-13T12:30:59;19.80;84.20
19261;DHT22;9764;48.114;11.670;2023-02-13T12:34:05;19.70;84.10
19261;DHT22;9764;48.114;11.670;2023-02-13T12:36:47;19.70;84.10
19261;DHT22;9764;48.114;11.670;2023-02-13T12:39:25;19.80;84.20
19261;DHT22;9764;48.114;11.670;2023-02-13T12:45:06;19.80;84.00
19261;DHT22;9764;48.114;11.670;2023-02-13T12:50:55;19.90;83.80
19261;DHT22;9764;48.114;11.670;2023-02-13T12:53:42;19.90;84.00
19261;DHT22;9764;48.114;11.670;2023-02-13T12:56:38;19.90;84.00
19261;DHT22;9764;48.114;11.670;2023-02-13T12:59:16;19.90;84.00
19261;DHT22;9764;48.114;11.670;2023-02-13T13:02:11;19.90;84.00
19261;DHT22;9764;48.114;11.670;2023-02-13T13:04:52;19.80;83.90
19261;DHT22;9764;48.114;11.670;2023-02-13T13:07:43;19.90;83.80
19261;DHT22;9764;48.114;11.670;2023-02-13T13:10:30;20.00;83.80
19261;DHT22;9764;48.114;11.670;2023-02-13T13:13:07;20.20;83.00
19261;DHT22;9764;48.114;11.670;2023-02-13T13:15:45;20.00;83.00
19261;DHT22;9764;48.114;11.670;2023-02-13T13:18:26;20.10;83.00
19261;DHT22;9764;48.114;11.670;2023-02-13T13:21:08;20.10;82.70
19261;DHT22;9764;48.114;11.670;2023-02-13T13:23:44;20.10;82.70
19261;DHT22;9764;48.114;11.670;2023-02-13T13:26:19;20.00;83.20
19261;DHT22;9764;48.114;11.670;2023-02-13T13:28:53;20.10;82.90
19261;DHT22;9764;48.114;11.670;2023-02-13T13:31:26;20.00;82.90
19261;DHT22;9764;48.114;11.670;2023-02-13T13:34:00;20.00;83.00
19261;DHT22;9764;48.114;11.670;2023-02-13T13:36:36;20.00;82.60
19261;DHT22;9764;48.114;11.670;2023-02-13T13:39:17;20.20;82.50
19261;DHT22;9764;48.114;11.670;2023-02-13T13:41:53;20.20;82.50
19261;DHT22;9764;48.114;11.670;2023-02-13T13:44:38;20.10;82.50
19261;DHT22;9764;48.114;11.670;2023-02-13T13:47:20;20.00;82.80
19261;DHT22;9764;48.114;11.670;2023-02-13T13:49:55;20.00;82.60
19261;DHT22;9764;48.114;11.670;2023-02-13T13:52:25;20.00;82.90
19261;DHT22;9764;48.114;11.670;2023-02-13T13:54:55;20.00;82.90
19261;DHT22;9764;48.114;11.670;2023-02-13T13:57:26;20.00;82.90
19261;DHT22;9764;48.114;11.670;2023-02-13T14:00:26;20.00;82.90
19261;DHT22;9764;48.114;11.670;2023-02-13T14:03:32;20.00;82.90
19261;DHT22;9764;48.114;11.670;2023-02-13T14:06:08;20.10;82.90
19261;DHT22;9764;48.114;11.670;2023-02-13T14:08:56;20.20;82.90
19261;DHT22;9764;48.114;11.670;2023-02-13T14:11:28;20.10;82.60
19261;DHT22;9764;48.114;11.670;2023-02-13T14:13:58;20.10;82.70
19261;DHT22;9764;48.114;11.670;2023-02-13T14:16:39;20.10;82.70
19261;DHT22;9764;48.114;11.670;2023-02-13T14:19:24;20.00;82.90
19261;DHT22;9764;48.114;11.670;2023-02-13T14:21:55;20.10;82.70
19261;DHT22;9764;48.114;11.670;2023-02-13T14:24:48;20.00;82.80
19261;DHT22;9764;48.114;11.670;2023-02-13T14:27:21;20.00;82.60
19261;DHT22;9764;48.114;11.670;2023-02-13T14:29:50;20.00;82.90
19261;DHT22;9764;48.114;11.670;2023-02-13T14:32:22;20.00;82.70
19261;DHT22;9764;48.114;11.670;2023-02-13T14:34:57;20.00;82.50
19261;DHT22;9764;48.114;11.670;2023-02-13T14:37:34;20.10;82.50
19261;DHT22;9764;48.114;11.670;2023-02-13T14:40:28;20.10;82.50
19261;DHT22;9764;48.114;11.670;2023-02-13T14:43:07;20.10;82.40
19261;DHT22;9764;48.114;11.670;2023-02-13T14:45:47;20.10;82.30
19261;DHT22;9764;48.114;11.670;2023-02-13T14:48:19;20.30;82.20
19261;DHT22;9764;48.114;11.670;2023-02-13T14:50:51;20.50;82.00
19261;DHT22;9764;48.114;11.670;2023-02-13T14:53:24;20.40;81.60
19261;DHT22;9764;48.114;11.670;2023-02-13T14:55:56;20.50;81.50
19261;DHT22;9764;48.114;11.670;2023-02-13T14:58:29;20.60;81.30
19261;DHT22;9764;48.114;11.670;2023-02-13T15:01:02;20.70;81.50
19261;DHT22;9764;48.114;11.670;2023-02-13T15:03:36;20.70;81.40
19261;DHT22;9764;48.114;11.670;2023-02-13T15:06:12;20.80;81.30
19261;DHT22;9764;48.114;11.670;2023-02-13T15:08:47;20.90;80.90
19261;DHT22;9764;48.114;11.670;2023-02-13T15:11:32;20.80;81.00
19261;DHT22;9764;48.114;11.670;2023-02-13T15:14:21;20.80;81.10
19261;DHT22;9764;48.114;11.670;2023-02-13T15:16:54;20.80;81.10
19261;DHT22;9764;48.114;11.670;2023-02-13T15:19:25;20.90;81.00
19261;DHT22;9764;48.114;11.670;2023-02-13T15:21:56;20.90;80.90
19261;DHT22;9764;48.114;11.670;2023-02-13T15:24:30;20.90;80.90
19261;DHT22;9764;48.114;11.670;2023-02-13T15:27:02;20.90;81.00
19261;DHT22;9764;48.114;11.670;2023-02-13T15:29:31;20.90;80.80
19261;DHT22;9764;48.114;11.670;2023-02-13T15:32:20;20.90;80.60
19261;DHT22;9764;48.114;11.670;2023-02-13T15:34:52;20.90;80.80
19261;DHT22;9764;48.114;11.670;2023-02-13T15:37:22;20.90;80.50
19261;DHT22;9764;48.114;11.670;2023-02-13T15:39:52;20.90;80.30
19261;DHT22;9764;48.114;11.670;2023-02-13T15:42:20;21.00;80.30
19261;DHT22;9764;48.114;11.670;2023-02-13T15:44:52;21.00;80.30
19261;DHT22;9764;48.114;11.670;2023-02-13T15:47:27;21.00;80.20
19261;DHT22;9764;48.114;11.670;2023-02-13T15:49:57;21.00;79.90
19261;DHT22;9764;48.114;11.670;2023-02-13T15:52:30;21.10;79.90
19261;DHT22;9764;48.114;11.670;2023-02-13T15:55:00;21.10;79.80
19261;DHT22;9764;48.114;11.670;2023-02-13T15:57:29;21.10;79.40
19261;DHT22;9764;48.114;11.670;2023-02-13T15:59:59;21.10;80.20
19261;DHT22;9764;48.114;11.670;2023-02-13T16:02:41;21.20;78.90
19261;DHT22;9764;48.114;11.670;2023-02-13T16:05:13;21.20;79.10
19261;DHT22;9764;48.114;11.670;2023-02-13T16:07:54;21.30;78.80
19261;DHT22;9764;48.114;11.670;2023-02-13T16:10:27;21.20;78.90
19261;DHT22;9764;48.114;11.670;2023-02-13T16:12:58;21.20;78.60
19261;DHT22;9764;48.114;11.670;2023-02-13T16:15:30;21.20;78.70
19261;DHT22;9764;48.114;11.670;2023-02-13T16:17:59;21.20;78.80
19261;DHT22;9764;48.114;11.670;2023-02-13T16:20:29;21.20;78.50
19261;DHT22;9764;48.114;11.670;2023-02-13T16:23:02;21.20;78.80
19261;DHT22;9764;48.114;11.670;2023-02-13T16:25:36;21.10;78.90
19261;DHT22;9764;48.114;11.670;2023-02-13T16:28:15;21.10;78.90
19261;DHT22;9764;48.114;11.670;2023-02-13T16:30:50;21.20;78.80